Time;durP1;ratioP1;P1;durP2;ratioP2;P2;SDS_P1;SDS_P2;PMS_P1;PMS_P2;Temp;Humidity;BMP_temperature;BMP_pressure;BME280_temperature;BME280_humidity;BME280_pressure;Samples;Min_cycle;Max_cycle;Signal;HPM_P1;HPM_P2
2022/03/20 00:00:53;;;;;;;8.48;2.42;;;5.50;85.00;;;;;;4435390;32;20073;-65
2022/03/20 00:03:20;;;;;;;;;;;5.50;85.30;;;;;;4435784;32;20081;-66
2022/03/20 00:05:48;;;;;;;4.57;2.42;;;5.60;84.80;;;;;;4432683;32;19965;-66
2022/03/20 00:08:14;;;;;;;1.42;1.33;;;5.50;85.20;;;;;;4430867;32;20053;-65
2022/03/20 00:10:44;;;;;;;10.90;3.80;;;5.40;85.20;;;;;;4433156;32;20057;-65
2022/03/20 00:13:10;;;;;;;1.17;1.13;;;5.30;85.50;;;;;;4433046;32;20573;-65
2022/03/20 00:15:41;;;;;;;1.50;1.40;;;5.20;85.80;;;;;;4433344;32;20078;-66
2022/03/20 00:18:10;;;;;;;2.50;2.10;;;5.20;87.00;;;;;;4435897;32;20189;-65
2022/03/20 00:20:38;;;;;;;2.97;2.40;;;5.10;87.00;;;;;;4433851;32;20533;-65
2022/03/20 00:23:05;;;;;;;2.42;1.62;;;5.20;87.40;;;;;;4437320;32;20053;-65
2022/03/20 00:25:33;;;;;;;6.25;1.87;;;5.10;87.80;;;;;;4432637;32;20103;-65
2022/03/20 00:27:58;;;;;;;1.92;1.75;;;5.10;88.20;;;;;;4433370;32;20536;-65
2022/03/20 00:30:24;;;;;;;1.45;1.35;;;5.10;88.30;;;;;;4433154;32;20143;-65
2022/03/20 00:32:49;;;;;;;3.65;1.70;;;5.10;88.40;;;;;;4428561;32;20108;-65
2022/03/20 00:35:14;;;;;;;2.20;1.95;;;4.90;88.50;;;;;;4431113;32;20128;-64
2022/03/20 00:37:40;;;;;;;3.12;2.28;;;4.90;88.90;;;;;;4433577;32;21251;-65
2022/03/20 00:40:06;;;;;;;5.65;2.15;;;4.90;88.60;;;;;;4436279;32;20088;-66
2022/03/20 00:42:32;;;;;;;7.78;3.40;;;4.90;88.70;;;;;;4435063;32;20097;-64
2022/03/20 00:44:58;;;;;;;1.70;1.50;;;5.00;88.20;;;;;;4432266;32;20101;-64
2022/03/20 00:47:23;;;;;;;20.20;3.08;;;4.90;88.10;;;;;;4435052;32;20073;-65
2022/03/20 00:49:49;;;;;;;1.35;1.12;;;4.90;88.50;;;;;;4434482;32;20091;-65
2022/03/20 00:52:14;;;;;;;6.40;3.35;;;4.80;88.30;;;;;;4433600;32;20123;-65
2022/03/20 00:54:40;;;;;;;4.18;2.05;;;4.90;87.80;;;;;;4435432;32;20090;-65
2022/03/20 00:57:06;;;;;;;2.45;2.10;;;4.90;87.30;;;;;;4430066;32;20209;-65
2022/03/20 00:59:32;;;;;;;3.12;1.87;;;4.90;87.30;;;;;;4435487;32;20112;-65
2022/03/20 01:01:57;;;;;;;6.05;3.47;;;4.90;87.80;;;;;;4433733;32;20472;-65
2022/03/20 01:04:23;;;;;;;2.50;1.85;;;4.90;87.10;;;;;;4433598;32;20584;-64
2022/03/20 01:06:48;;;;;;;6.30;2.50;;;4.90;87.20;;;;;;4431850;32;20069;-64
2022/03/20 01:09:14;;;;;;;1.95;1.75;;;4.90;87.10;;;;;;4432565;32;20089;-65
2022/03/20 01:11:40;;;;;;;3.37;1.75;;;4.90;87.10;;;;;;4432039;32;20065;-65
2022/03/20 01:14:06;;;;;;;1.67;1.42;;;4.90;86.80;;;;;;4435562;32;20069;-65
2022/03/20 01:16:31;;;;;;;2.65;1.98;;;4.80;87.20;;;;;;4435614;32;20069;-65
2022/03/20 01:18:57;;;;;;;2.70;1.45;;;4.90;86.50;;;;;;4436103;32;20092;-64
2022/03/20 01:21:23;;;;;;;5.03;2.53;;;4.80;86.10;;;;;;4437245;32;20423;-64
2022/03/20 01:23:49;;;;;;;1.65;1.40;;;4.90;85.80;;;;;;4434152;32;20081;-64
2022/03/20 01:26:15;;;;;;;1.42;1.23;;;4.90;86.20;;;;;;4435655;32;20058;-64
2022/03/20 01:28:40;;;;;;;2.47;1.85;;;4.80;85.70;;;;;;4434686;32;20616;-64
2022/03/20 01:31:09;;;;;;;2.45;1.62;;;4.90;85.90;;;;;;4434548;32;20576;-64
2022/03/20 01:33:34;;;;;;;2.80;1.75;;;4.90;85.50;;;;;;4436029;32;20086;-64
2022/03/20 01:36:00;;;;;;;1.42;1.33;;;4.90;85.20;;;;;;4437730;32;20065;-64
2022/03/20 01:38:26;;;;;;;8.23;2.92;;;4.80;85.20;;;;;;4431759;32;20086;-64
2022/03/20 01:40:52;;;;;;;1.10;1.10;;;4.70;85.30;;;;;;4430854;32;20102;-64
2022/03/20 01:43:18;;;;;;;8.68;2.65;;;4.80;85.70;;;;;;4434628;32;20066;-65
2022/03/20 01:45:43;;;;;;;5.07;2.45;;;4.70;85.50;;;;;;4433831;32;20085;-64
2022/03/20 01:48:09;;;;;;;1.73;1.40;;;4.70;85.90;;;;;;4433338;32;20439;-64
2022/03/20 01:50:35;;;;;;;1.73;1.27;;;4.70;85.70;;;;;;4435855;32;20072;-64
2022/03/20 01:53:01;;;;;;;1.60;1.50;;;4.60;86.30;;;;;;4436898;32;20070;-65
2022/03/20 01:55:28;;;;;;;2.12;1.92;;;4.60;85.70;;;;;;4434417;32;20085;-65
2022/03/20 01:57:54;;;;;;;2.00;1.45;;;4.60;86.40;;;;;;4434468;32;20081;-65
2022/03/20 02:00:22;;;;;;;2.60;1.83;;;4.60;85.90;;;;;;4436520;32;20057;-64
2022/03/20 02:02:47;;;;;;;3.05;1.95;;;4.60;85.80;;;;;;4435328;32;20430;-64
2022/03/20 02:05:14;;;;;;;8.32;2.75;;;4.60;86.00;;;;;;4438315;32;20074;-65
2022/03/20 02:07:40;;;;;;;1.67;1.37;;;4.50;86.40;;;;;;4433435;32;20138;-64
2022/03/20 02:10:07;;;;;;;5.50;2.05;;;4.50;86.40;;;;;;4436351;32;20061;-64
2022/03/20 02:12:35;;;;;;;1.55;1.45;;;4.40;86.70;;;;;;4433809;32;20089;-64
2022/03/20 02:15:02;;;;;;;2.90;1.60;;;4.40;87.00;;;;;;4435721;32;20074;-64
2022/03/20 02:17:30;;;;;;;0.88;0.88;;;4.30;87.00;;;;;;4431225;32;20128;-64
2022/03/20 02:19:57;;;;;;;3.78;1.40;;;4.40;86.90;;;;;;4436033;32;20126;-64
2022/03/20 02:22:24;;;;;;;1.92;1.42;;;4.30;87.50;;;;;;4436617;32;20073;-65
2022/03/20 02:24:51;;;;;;;1.37;1.20;;;4.30;87.80;;;;;;4439126;32;20128;-65
2022/03/20 02:27:20;;;;;;;1.45;1.35;;;4.20;88.40;;;;;;4435305;32;20080;-64
2022/03/20 02:29:49;;;;;;;1.55;1.45;;;4.30;87.70;;;;;;4436278;32;20216;-65
2022/03/20 02:32:16;;;;;;;3.33;1.95;;;4.30;87.70;;;;;;4436711;32;20115;-65
2022/03/20 02:34:45;;;;;;;2.62;2.15;;;4.20;87.90;;;;;;4431882;32;20573;-64
2022/03/20 02:37:11;;;;;;;5.43;2.62;;;4.20;88.60;;;;;;4434323;32;20491;-64
2022/03/20 02:39:37;;;;;;;1.85;1.50;;;4.20;88.30;;;;;;4437706;32;20405;-65
2022/03/20 02:42:05;;;;;;;2.55;1.35;;;4.10;88.50;;;;;;4433645;32;20062;-64
2022/03/20 02:45:10;;;;;;;2.62;1.65;;;4.10;88.90;;;;;;4433140;32;20143;-65
2022/03/20 02:47:39;;;;;;;2.17;1.55;;;4.20;88.70;;;;;;4420872;32;20081;-65
2022/03/20 02:50:07;;;;;;;3.17;2.40;;;4.10;89.20;;;;;;4434760;32;20068;-65
2022/03/20 02:52:52;;;;;;;5.15;2.95;;;4.00;89.00;;;;;;4435054;32;20069;-65
2022/03/20 02:55:23;;;;;;;1.80;1.65;;;4.10;89.70;;;;;;4435761;32;20073;-64
2022/03/20 02:57:49;;;;;;;2.17;1.70;;;4.10;89.70;;;;;;4434977;32;20156;-65
2022/03/20 03:00:21;;;;;;;5.85;1.40;;;4.00;89.70;;;;;;4431437;32;20070;-65
2022/03/20 03:02:47;;;;;;;8.27;2.20;;;3.90;90.20;;;;;;4433778;32;20073;-65
2022/03/20 03:05:16;;;;;;;1.37;1.10;;;3.90;90.40;;;;;;4437192;32;20064;-65
2022/03/20 03:11:02;;;;;;;3.75;1.70;;;3.80;90.50;;;;;;4420360;32;20084;-65
2022/03/20 03:13:16;;;;;;;1.65;1.30;;;3.70;90.60;;;;;;4423098;32;20152;-64
2022/03/20 03:15:42;;;;;;;2.67;1.83;;;3.70;90.70;;;;;;4434019;32;20053;-64
2022/03/20 03:18:08;;;;;;;4.43;1.58;;;3.70;90.40;;;;;;4433679;32;20089;-64
2022/03/20 03:20:34;;;;;;;4.43;2.00;;;3.70;90.50;;;;;;4431853;32;20670;-64
2022/03/20 03:23:00;;;;;;;4.65;3.03;;;3.70;90.70;;;;;;4436010;32;20480;-64
2022/03/20 03:25:25;;;;;;;0.88;0.88;;;3.60;90.80;;;;;;4435619;32;20581;-64
2022/03/20 03:27:51;;;;;;;0.90;0.90;;;3.60;90.80;;;;;;4433880;32;20096;-65
2022/03/20 03:30:17;;;;;;;10.57;2.55;;;3.60;90.80;;;;;;4432599;32;20069;-64
2022/03/20 03:32:43;;;;;;;1.55;1.45;;;3.60;90.90;;;;;;4431014;32;20073;-64
2022/03/20 03:35:43;;;;;;;1.95;0.93;;;3.50;90.90;;;;;;4436155;32;20536;-63
2022/03/20 03:37:58;;;;;;;14.23;2.42;;;3.40;91.00;;;;;;4422777;32;20098;-65
2022/03/20 03:40:24;;;;;;;2.47;1.87;;;3.40;91.00;;;;;;4433938;32;20085;-66
2022/03/20 03:42:50;;;;;;;3.85;2.17;;;3.40;91.20;;;;;;4434503;32;20101;-65
2022/03/20 03:45:15;;;;;;;1.73;1.62;;;3.40;91.10;;;;;;4432343;32;20089;-64
2022/03/20 03:47:41;;;;;;;2.33;1.60;;;3.40;91.20;;;;;;4432223;32;20077;-64
2022/03/20 03:50:08;;;;;;;0.88;0.88;;;3.40;91.20;;;;;;4436081;32;20057;-65
2022/03/20 03:52:33;;;;;;;2.22;2.03;;;3.40;91.30;;;;;;4438899;32;20434;-65
2022/03/20 03:54:59;;;;;;;8.02;2.40;;;3.40;91.40;;;;;;4429634;32;20081;-64
2022/03/20 03:57:24;;;;;;;1.20;1.17;;;3.40;91.50;;;;;;4434440;32;20093;-63
2022/03/20 03:59:50;;;;;;;2.30;1.95;;;3.30;91.50;;;;;;4437346;32;20088;-65
2022/03/20 04:02:15;;;;;;;1.65;1.55;;;3.30;91.50;;;;;;4435186;32;20069;-66
2022/03/20 04:04:42;;;;;;;0.70;0.70;;;3.30;91.50;;;;;;4433524;32;20073;-65
2022/03/20 04:07:08;;;;;;;3.65;1.75;;;3.40;91.50;;;;;;4429904;32;20077;-64
2022/03/20 04:09:35;;;;;;;1.50;1.40;;;3.30;91.60;;;;;;4437612;32;20068;-65
2022/03/20 04:12:02;;;;;;;0.80;0.80;;;3.30;91.80;;;;;;4435328;32;20069;-64
2022/03/20 04:14:28;;;;;;;1.98;1.60;;;3.20;91.80;;;;;;4432411;32;20496;-65
2022/03/20 04:16:54;;;;;;;1.12;1.10;;;3.20;91.80;;;;;;4435445;32;20096;-64
2022/03/20 04:19:20;;;;;;;1.42;1.33;;;3.20;91.60;;;;;;4433459;32;20512;-65
2022/03/20 04:21:48;;;;;;;1.75;1.60;;;3.20;91.80;;;;;;4433413;32;20085;-64
2022/03/20 04:24:13;;;;;;;1.00;1.00;;;3.20;91.70;;;;;;4434950;32;20172;-64
2022/03/20 04:26:39;;;;;;;1.55;1.17;;;3.30;91.70;;;;;;4435556;32;20623;-64
2022/03/20 04:29:04;;;;;;;3.37;2.53;;;3.20;91.60;;;;;;4433207;32;20065;-64
2022/03/20 04:31:30;;;;;;;2.33;1.73;;;3.20;91.90;;;;;;4432891;32;20068;-64
2022/03/20 04:33:58;;;;;;;1.92;1.80;;;3.20;91.60;;;;;;4434357;32;20506;-65
2022/03/20 04:36:27;;;;;;;2.15;1.27;;;3.30;91.60;;;;;;4434126;32;20096;-64
2022/03/20 04:38:55;;;;;;;2.05;1.85;;;3.20;91.60;;;;;;4433463;32;20100;-64
2022/03/20 04:41:21;;;;;;;5.78;2.83;;;3.30;91.50;;;;;;4431694;32;20106;-65
2022/03/20 04:43:50;;;;;;;6.00;1.70;;;3.30;91.40;;;;;;4430042;32;20060;-65
2022/03/20 04:46:16;;;;;;;1.90;1.52;;;3.20;91.60;;;;;;4433504;32;20065;-64
2022/03/20 04:58:29;;;;;;;2.17;1.87;;;3.10;91.70;;;;;;4433759;32;20082;-64
2022/03/20 04:58:32;;;;;;;2.03;1.62;;;3.10;91.90;;;;;;4424936;32;20278;-65
2022/03/20 04:59:46;;;;;;;4.90;2.28;;;3.00;91.90;;;;;;4423921;32;20072;-65
2022/03/20 05:02:11;;;;;;;1.33;1.27;;;3.00;92.20;;;;;;4437752;32;20131;-65
2022/03/20 05:04:37;;;;;;;1.35;1.25;;;3.00;92.20;;;;;;4433043;32;20097;-65
2022/03/20 05:07:04;;;;;;;2.90;2.30;;;2.90;92.40;;;;;;4437577;32;20089;-64
2022/03/20 05:13:20;;;;;;;0.75;0.75;;;2.90;92.80;;;;;;4424757;32;20133;-64
2022/03/20 05:15:06;;;;;;;1.60;1.20;;;2.90;92.60;;;;;;4422599;32;20070;-65
2022/03/20 05:17:32;;;;;;;13.13;3.83;;;2.90;92.60;;;;;;4433670;32;20641;-64
2022/03/20 05:19:57;;;;;;;1.40;1.33;;;2.90;92.80;;;;;;4440025;32;20521;-64
2022/03/20 05:22:23;;;;;;;1.73;1.37;;;2.80;92.70;;;;;;4435370;32;20081;-64
2022/03/20 05:24:48;;;;;;;1.50;1.40;;;2.80;92.70;;;;;;4437290;32;20090;-65
2022/03/20 05:27:14;;;;;;;1.67;1.58;;;2.80;92.80;;;;;;4437509;32;20146;-65
2022/03/20 05:29:40;;;;;;;6.03;2.55;;;2.90;92.90;;;;;;4434351;32;20092;-65
2022/03/20 05:32:08;;;;;;;1.73;1.62;;;2.70;92.60;;;;;;4433239;32;20096;-65
2022/03/20 05:34:34;;;;;;;3.10;1.37;;;2.80;92.70;;;;;;4434720;32;20120;-65
2022/03/20 05:37:00;;;;;;;3.65;2.05;;;2.80;92.60;;;;;;4437925;32;20142;-65
2022/03/20 05:39:26;;;;;;;13.95;2.92;;;2.80;92.60;;;;;;4437179;32;20431;-65
2022/03/20 05:41:51;;;;;;;7.57;2.15;;;2.80;92.60;;;;;;4436791;32;20065;-65
2022/03/20 05:44:20;;;;;;;3.20;1.92;;;2.80;92.70;;;;;;4436084;32;20076;-65
2022/03/20 05:46:49;;;;;;;2.15;1.60;;;2.90;92.60;;;;;;4435219;32;20431;-65
2022/03/20 05:49:15;;;;;;;6.72;2.90;;;2.90;92.40;;;;;;4434808;32;20064;-65
2022/03/20 05:51:41;;;;;;;1.95;1.33;;;2.90;92.40;;;;;;4436501;32;20077;-65
2022/03/20 05:54:07;;;;;;;1.62;1.52;;;2.90;92.40;;;;;;4435477;32;20142;-65
2022/03/20 05:58:04;;;;;;;5.37;2.37;;;3.00;92.30;;;;;;4438743;32;20069;-65
2022/03/20 05:59:19;;;;;;;8.55;2.40;;;3.00;92.30;;;;;;4423810;32;20085;-65
2022/03/20 06:01:45;;;;;;;0.88;0.82;;;3.00;92.30;;;;;;4435711;32;20540;-64
2022/03/20 06:04:11;;;;;;;1.42;1.33;;;3.00;92.20;;;;;;4435996;32;20179;-64
2022/03/20 06:06:37;;;;;;;1.65;1.55;;;3.00;92.10;;;;;;4438434;32;20078;-65
2022/03/20 06:09:04;;;;;;;1.60;1.50;;;3.00;92.20;;;;;;4436337;32;20302;-65
2022/03/20 06:11:30;;;;;;;11.40;3.85;;;3.10;91.80;;;;;;4434030;32;20580;-64
2022/03/20 06:13:55;;;;;;;1.75;1.62;;;3.20;91.60;;;;;;4434469;32;20073;-64
2022/03/20 06:16:22;;;;;;;2.25;1.87;;;3.20;91.60;;;;;;4434428;32;20542;-65
2022/03/20 06:18:48;;;;;;;2.03;1.77;;;3.30;91.30;;;;;;4435687;32;20105;-65
2022/03/20 06:21:14;;;;;;;3.55;2.55;;;3.30;91.10;;;;;;4432004;32;20517;-65
2022/03/20 06:23:39;;;;;;;2.55;1.95;;;3.30;91.00;;;;;;4434902;32;20069;-65
2022/03/20 06:26:06;;;;;;;2.37;1.30;;;3.40;91.10;;;;;;4437593;32;20068;-65
2022/03/20 06:28:33;;;;;;;2.62;2.10;;;3.40;91.10;;;;;;4435324;32;20093;-65
2022/03/20 06:30:58;;;;;;;1.20;1.10;;;3.50;90.80;;;;;;4436685;32;20079;-65
2022/03/20 06:33:25;;;;;;;2.55;1.83;;;3.70;90.80;;;;;;4438606;32;20409;-65
2022/03/20 06:35:52;;;;;;;7.10;2.47;;;3.80;90.40;;;;;;4432493;32;20069;-65
2022/03/20 06:38:18;;;;;;;6.70;2.15;;;3.90;90.20;;;;;;4433525;32;20080;-65
2022/03/20 06:40:44;;;;;;;1.12;1.12;;;3.90;90.00;;;;;;4433442;32;20154;-64
2022/03/20 06:43:09;;;;;;;5.62;3.35;;;4.00;89.10;;;;;;4433610;32;20077;-65
2022/03/20 06:45:36;;;;;;;6.62;3.08;;;3.90;89.40;;;;;;4434061;32;20083;-65
2022/03/20 06:48:02;;;;;;;5.90;2.62;;;3.90;89.50;;;;;;4432985;32;20926;-65
2022/03/20 06:50:28;;;;;;;4.25;2.47;;;3.90;89.50;;;;;;4435210;32;20077;-65
2022/03/20 06:52:53;;;;;;;2.92;1.83;;;3.90;88.70;;;;;;4431885;32;20453;-65
2022/03/20 06:55:19;;;;;;;3.03;2.00;;;3.90;89.00;;;;;;4432913;32;20065;-65
2022/03/20 06:57:46;;;;;;;0.90;0.90;;;4.00;88.50;;;;;;4433035;32;20073;-65
2022/03/20 07:00:14;;;;;;;4.80;1.30;;;4.00;88.80;;;;;;4434471;32;20163;-65
2022/03/20 07:02:39;;;;;;;3.60;1.48;;;4.10;88.60;;;;;;4434170;32;20109;-65
2022/03/20 07:05:06;;;;;;;9.40;3.58;;;4.10;88.90;;;;;;4436842;32;20470;-65
2022/03/20 07:07:34;;;;;;;5.05;2.72;;;4.20;88.40;;;;;;4432902;32;20564;-65
2022/03/20 07:09:59;;;;;;;3.70;1.73;;;4.20;88.00;;;;;;4436675;32;20064;-65
2022/03/20 07:12:25;;;;;;;1.98;1.73;;;4.40;87.60;;;;;;4433857;32;20129;-66
2022/03/20 07:14:50;;;;;;;5.78;2.15;;;4.40;87.30;;;;;;4433813;32;20093;-65
2022/03/20 07:17:18;;;;;;;1.90;1.80;;;4.50;86.40;;;;;;4432978;32;20073;-66
2022/03/20 07:19:44;;;;;;;16.05;2.87;;;4.60;86.00;;;;;;4432289;32;20086;-66
2022/03/20 07:22:11;;;;;;;3.53;2.60;;;4.70;86.70;;;;;;4435515;32;21361;-65
2022/03/20 07:24:38;;;;;;;2.70;1.92;;;4.70;85.70;;;;;;4432494;32;20088;-65
2022/03/20 07:29:36;;;;;;;6.72;3.50;;;4.80;85.20;;;;;;4437265;32;20073;-65
2022/03/20 07:29:50;;;;;;;3.08;2.40;;;4.70;85.40;;;;;;4419743;32;20515;-64
2022/03/20 07:32:16;;;;;;;2.90;2.42;;;4.90;85.40;;;;;;4433484;32;20069;-64
2022/03/20 07:34:44;;;;;;;3.47;1.85;;;5.00;84.80;;;;;;4432648;32;87653;-64
2022/03/20 07:37:11;;;;;;;7.25;2.33;;;5.00;85.00;;;;;;4435275;32;20407;-64
2022/03/20 07:39:36;;;;;;;7.80;3.75;;;5.00;84.50;;;;;;4431474;32;20195;-64
2022/03/20 07:42:03;;;;;;;16.15;3.55;;;5.20;83.90;;;;;;4434174;32;20069;-65
2022/03/20 07:44:31;;;;;;;6.03;3.40;;;5.10;83.90;;;;;;4433660;32;20057;-64
2022/03/20 07:46:57;;;;;;;11.20;3.20;;;4.90;84.00;;;;;;4438296;32;20125;-65
2022/03/20 07:49:23;;;;;;;6.28;2.47;;;4.90;84.90;;;;;;4433714;32;20083;-65
2022/03/20 07:51:48;;;;;;;2.95;2.42;;;5.10;84.70;;;;;;4435053;32;20525;-65
2022/03/20 07:54:14;;;;;;;1.92;1.50;;;5.20;84.30;;;;;;4432671;32;20465;-65
2022/03/20 07:56:40;;;;;;;7.70;2.70;;;5.30;83.60;;;;;;4435164;32;20173;-65
2022/03/20 07:59:06;;;;;;;3.62;2.10;;;5.40;83.40;;;;;;4437509;32;20077;-64
2022/03/20 08:01:34;;;;;;;5.65;2.45;;;5.60;82.60;;;;;;4435729;32;20085;-64
2022/03/20 08:04:00;;;;;;;2.08;1.75;;;5.60;83.00;;;;;;4435665;32;20082;-65
2022/03/20 08:06:26;;;;;;;4.35;2.33;;;5.70;81.80;;;;;;4435030;32;20081;-65
2022/03/20 08:08:52;;;;;;;4.12;2.62;;;5.80;82.00;;;;;;4433220;32;20434;-64
2022/03/20 08:11:18;;;;;;;7.25;4.00;;;5.90;81.50;;;;;;4432648;32;20565;-64
2022/03/20 08:13:44;;;;;;;2.90;1.70;;;5.90;81.60;;;;;;4436547;32;20060;-64
2022/03/20 08:16:15;;;;;;;1.95;1.58;;;5.90;81.50;;;;;;4433112;32;20529;-64
2022/03/20 08:18:43;;;;;;;1.95;1.58;;;5.90;81.50;;;;;;4435602;32;20060;-64
2022/03/20 08:21:09;;;;;;;3.62;2.55;;;6.00;81.80;;;;;;4432178;32;20081;-64
2022/03/20 08:23:36;;;;;;;3.78;2.75;;;6.10;81.00;;;;;;4436463;32;20069;-65
2022/03/20 08:26:01;;;;;;;2.85;2.17;;;6.30;81.00;;;;;;4437472;32;20846;-65
2022/03/20 08:28:27;;;;;;;2.65;1.48;;;6.50;80.50;;;;;;4434341;32;20109;-65
2022/03/20 08:30:52;;;;;;;3.33;2.65;;;6.60;80.20;;;;;;4435111;32;20549;-64
2022/03/20 08:33:18;;;;;;;1.33;1.23;;;6.70;79.50;;;;;;4433510;32;20065;-64
2022/03/20 08:35:44;;;;;;;4.25;2.15;;;6.70;79.50;;;;;;4438262;32;20068;-64
2022/03/20 08:38:09;;;;;;;3.22;1.77;;;6.90;79.50;;;;;;4434889;32;20167;-64
2022/03/20 08:40:35;;;;;;;1.73;1.48;;;7.10;78.60;;;;;;4439688;32;20554;-63
2022/03/20 08:43:04;;;;;;;3.22;2.25;;;7.20;79.20;;;;;;4436789;32;20102;-65
2022/03/20 08:45:31;;;;;;;3.85;1.90;;;7.40;78.10;;;;;;4437870;32;20076;-64
2022/03/20 08:47:57;;;;;;;2.72;1.67;;;7.60;77.90;;;;;;4435650;32;20112;-65
2022/03/20 08:50:24;;;;;;;4.85;2.12;;;7.70;77.70;;;;;;4433967;32;20069;-63
2022/03/20 08:52:50;;;;;;;6.25;2.58;;;7.80;76.80;;;;;;4435354;32;20098;-63
2022/03/20 08:55:16;;;;;;;4.50;2.33;;;7.90;76.40;;;;;;4437216;32;20065;-64
2022/03/20 08:57:44;;;;;;;8.32;2.00;;;7.90;76.70;;;;;;4437671;32;20105;-64
2022/03/20 09:00:13;;;;;;;3.00;1.85;;;7.90;76.50;;;;;;4437625;32;20086;-64
2022/03/20 09:02:38;;;;;;;4.50;2.72;;;7.80;76.20;;;;;;4436886;32;20670;-64
2022/03/20 09:05:05;;;;;;;3.22;2.15;;;8.00;76.40;;;;;;4435081;32;20135;-64
2022/03/20 09:07:31;;;;;;;4.95;2.58;;;8.00;75.20;;;;;;4435002;32;20089;-65
2022/03/20 09:09:56;;;;;;;2.33;1.55;;;8.10;75.20;;;;;;4435245;32;20105;-64
2022/03/20 09:12:23;;;;;;;9.43;2.80;;;8.10;75.60;;;;;;4435842;32;20081;-65
2022/03/20 09:14:48;;;;;;;3.42;1.80;;;8.20;75.10;;;;;;4434787;32;20384;-64
2022/03/20 09:19:14;;;;;;;2.28;1.33;;;8.30;75.10;;;;;;4435394;32;20123;-63
2022/03/20 09:19:59;;;;;;;2.37;1.98;;;8.50;74.10;;;;;;4420894;32;20073;-62
2022/03/20 09:22:26;;;;;;;6.12;2.62;;;8.60;73.40;;;;;;4437824;32;20160;-65
2022/03/20 09:24:53;;;;;;;1.45;1.35;;;8.60;73.70;;;;;;4435573;32;20073;-65
2022/03/20 09:27:18;;;;;;;3.12;2.53;;;8.80;73.60;;;;;;4438413;32;20839;-64
2022/03/20 09:29:43;;;;;;;1.30;1.20;;;9.00;72.50;;;;;;4436318;32;20096;-64
2022/03/20 09:32:09;;;;;;;4.85;3.30;;;9.10;72.50;;;;;;4435155;32;20508;-65
2022/03/20 09:34:35;;;;;;;2.90;1.67;;;9.40;71.50;;;;;;4437817;32;20090;-65
2022/03/20 09:37:00;;;;;;;7.35;2.20;;;9.60;70.70;;;;;;4436080;32;20089;-65
2022/03/20 09:39:26;;;;;;;2.12;1.37;;;9.90;71.10;;;;;;4435669;32;20164;-64
2022/03/20 09:41:54;;;;;;;3.70;1.58;;;9.90;70.00;;;;;;4434745;32;20132;-64
2022/03/20 09:44:23;;;;;;;6.37;2.42;;;10.00;71.10;;;;;;4433679;32;20061;-65
2022/03/20 09:46:49;;;;;;;3.85;1.50;;;10.20;69.90;;;;;;4436367;32;20100;-64
2022/03/20 09:49:16;;;;;;;3.10;1.40;;;10.20;69.20;;;;;;4419732;32;20103;-65
2022/03/20 09:51:43;;;;;;;3.62;2.37;;;10.50;69.50;;;;;;4436207;32;20061;-65
2022/03/20 09:54:13;;;;;;;0.90;0.90;;;10.60;68.60;;;;;;4435967;32;20084;-65
2022/03/20 09:56:41;;;;;;;4.55;2.15;;;10.50;68.80;;;;;;4435625;32;20538;-64
2022/03/20 09:59:07;;;;;;;4.43;2.03;;;10.80;67.30;;;;;;4434934;32;20081;-65
2022/03/20 10:01:34;;;;;;;19.65;3.90;;;11.00;66.90;;;;;;4431570;32;20498;-64
2022/03/20 10:04:15;;;;;;;2.50;1.70;;;11.00;67.30;;;;;;4434378;32;20081;-64
2022/03/20 10:06:43;;;;;;;6.95;1.58;;;11.20;66.60;;;;;;4436978;32;20522;-65
2022/03/20 10:09:13;;;;;;;0.80;0.80;;;11.20;64.40;;;;;;4440219;32;20062;-64
2022/03/20 10:11:46;;;;;;;3.27;1.37;;;11.30;63.60;;;;;;4436307;32;20683;-66
2022/03/20 10:14:17;;;;;;;1.67;1.35;;;11.40;65.80;;;;;;4435270;32;20082;-66
2022/03/20 10:16:53;;;;;;;2.05;1.60;;;11.90;64.80;;;;;;4434833;32;20061;-63
2022/03/20 10:19:27;;;;;;;4.72;2.92;;;12.20;63.30;;;;;;4437909;32;20787;-65
2022/03/20 10:22:00;;;;;;;43.05;2.67;;;12.50;62.70;;;;;;4433378;32;20065;-65
2022/03/20 10:24:27;;;;;;;1.17;1.17;;;12.50;61.40;;;;;;4432863;32;20088;-64
2022/03/20 10:27:04;;;;;;;24.77;1.80;;;12.40;59.70;;;;;;4434017;32;20113;-64
2022/03/20 10:29:34;;;;;;;2.37;1.85;;;12.20;59.20;;;;;;4434841;32;20465;-63
2022/03/20 10:32:05;;;;;;;7.50;2.85;;;12.20;59.90;;;;;;4437495;32;20118;-64
2022/03/20 10:34:48;;;;;;;3.78;2.35;;;12.20;59.90;;;;;;4433718;32;20121;-64
2022/03/20 10:37:13;;;;;;;9.65;2.35;;;12.30;59.50;;;;;;4431899;32;20070;-64
2022/03/20 10:39:42;;;;;;;3.30;1.77;;;12.10;59.60;;;;;;4434153;32;20084;-64
2022/03/20 10:42:12;;;;;;;1.98;1.17;;;12.00;58.90;;;;;;4433272;32;20069;-65
2022/03/20 10:44:38;;;;;;;1.23;1.13;;;12.00;59.40;;;;;;4432869;32;20589;-64
2022/03/20 10:47:10;;;;;;;5.93;1.92;;;12.10;59.70;;;;;;4435131;32;20103;-65
2022/03/20 10:49:36;;;;;;;3.03;1.40;;;12.40;59.40;;;;;;4435789;32;20077;-64
2022/03/20 10:52:05;;;;;;;1.30;1.00;;;12.70;58.30;;;;;;4436055;32;20082;-63
2022/03/20 10:54:51;;;;;;;4.45;1.37;;;12.80;57.70;;;;;;4434821;32;20109;-63
2022/03/20 10:57:17;;;;;;;2.17;1.65;;;12.70;57.40;;;;;;4436857;32;20138;-64
2022/03/20 10:59:43;;;;;;;1.40;1.27;;;12.70;58.10;;;;;;4433273;32;20578;-65
2022/03/20 11:02:25;;;;;;;1.15;1.08;;;12.90;57.70;;;;;;4435225;32;20165;-64
2022/03/20 11:04:51;;;;;;;2.70;1.87;;;12.90;56.70;;;;;;4432853;32;20500;-64
2022/03/20 11:07:18;;;;;;;3.37;1.48;;;12.80;56.20;;;;;;4436260;32;20078;-64
2022/03/20 11:09:47;;;;;;;2.17;1.20;;;13.00;55.80;;;;;;4436984;32;20493;-64
2022/03/20 11:12:21;;;;;;;2.58;1.65;;;13.30;55.70;;;;;;4435176;32;20119;-64
2022/03/20 11:14:47;;;;;;;7.20;2.40;;;13.60;55.00;;;;;;4432834;32;20481;-65
2022/03/20 11:17:17;;;;;;;0.90;0.85;;;13.50;55.90;;;;;;4435402;32;20098;-65
2022/03/20 11:19:49;;;;;;;9.20;1.33;;;13.40;55.80;;;;;;4433911;32;20065;-65
2022/03/20 11:22:19;;;;;;;2.37;1.50;;;13.40;56.00;;;;;;4432642;32;20573;-65
2022/03/20 11:24:46;;;;;;;1.97;1.27;;;13.90;55.20;;;;;;4432851;32;20209;-65
2022/03/20 11:27:14;;;;;;;6.12;1.42;;;14.10;54.70;;;;;;4432081;32;20170;-66
2022/03/20 11:29:47;;;;;;;1.95;1.48;;;14.20;54.30;;;;;;4434488;32;20084;-65
2022/03/20 11:32:14;;;;;;;3.85;1.50;;;14.40;53.70;;;;;;4433049;32;20109;-65
2022/03/20 11:34:40;;;;;;;2.87;1.45;;;14.60;53.90;;;;;;4433477;32;20069;-65
2022/03/20 11:37:08;;;;;;;1.17;1.08;;;15.00;52.30;;;;;;4436295;32;20508;-65
2022/03/20 11:39:36;;;;;;;33.58;2.95;;;15.30;52.90;;;;;;4434950;32;20580;-65
2022/03/20 11:42:22;;;;;;;0.98;0.85;;;15.70;51.80;;;;;;4431883;32;20061;-65
2022/03/20 11:45:06;;;;;;;1.27;1.10;;;15.60;51.30;;;;;;4420266;32;20560;-65
2022/03/20 11:47:33;;;;;;;4.15;1.58;;;15.30;51.00;;;;;;4436546;32;20057;-65
2022/03/20 11:50:10;;;;;;;2.37;1.67;;;15.30;51.50;;;;;;4432019;32;20115;-65
2022/03/20 11:52:47;;;;;;;1.15;1.10;;;15.80;51.30;;;;;;4434904;32;20049;-64
2022/03/20 11:55:33;;;;;;;2.53;1.30;;;15.80;49.50;;;;;;4433131;32;20078;-66
2022/03/20 11:58:09;;;;;;;2.72;1.40;;;15.40;50.10;;;;;;4422962;32;20440;-65
2022/03/20 12:00:39;;;;;;;6.80;2.25;;;15.30;50.50;;;;;;4434729;32;20086;-65
2022/03/20 12:03:35;;;;;;;2.53;1.73;;;16.10;50.00;;;;;;4435008;32;20077;-64
2022/03/20 12:06:26;;;;;;;1.20;1.10;;;16.60;49.00;;;;;;4427966;32;20292;-65
2022/03/20 12:09:09;;;;;;;1.90;1.35;;;16.60;48.80;;;;;;4424243;32;20064;-65
2022/03/20 12:11:56;;;;;;;3.03;2.33;;;16.50;48.90;;;;;;4435882;32;20092;-66
2022/03/20 12:14:30;;;;;;;4.40;2.30;;;16.40;49.20;;;;;;4429458;32;20117;-64
2022/03/20 12:16:58;;;;;;;4.37;1.45;;;16.50;48.20;;;;;;4433420;32;20093;-65
2022/03/20 12:19:47;;;;;;;1.67;1.02;;;16.30;48.30;;;;;;4435102;32;20086;-65
2022/03/20 12:22:28;;;;;;;1.60;1.50;;;16.60;48.00;;;;;;4435140;32;20073;-65
2022/03/20 12:24:57;;;;;;;2.03;1.42;;;17.00;47.30;;;;;;4416694;32;20486;-65
2022/03/20 12:27:25;;;;;;;1.33;1.15;;;17.20;47.30;;;;;;4437241;32;20160;-65
2022/03/20 12:30:14;;;;;;;1.48;1.10;;;17.40;46.90;;;;;;4432696;32;20134;-65
2022/03/20 12:32:52;;;;;;;1.90;1.20;;;17.70;46.10;;;;;;4423009;32;20509;-65
2022/03/20 12:35:22;;;;;;;2.58;1.62;;;18.30;45.70;;;;;;4431748;32;20525;-65
2022/03/20 12:37:48;;;;;;;2.78;1.50;;;17.90;45.30;;;;;;4434664;32;20073;-65
2022/03/20 12:40:18;;;;;;;5.28;1.42;;;18.00;45.50;;;;;;4434130;32;20117;-65
2022/03/20 12:42:56;;;;;;;11.60;2.17;;;18.00;45.50;;;;;;4432672;32;20562;-64
2022/03/20 12:45:23;;;;;;;4.40;1.40;;;18.30;45.40;;;;;;4432653;32;20140;-64
2022/03/20 12:48:10;;;;;;;1.52;1.15;;;18.70;44.60;;;;;;4434639;32;20143;-64
2022/03/20 12:50:38;;;;;;;1.98;1.20;;;17.80;45.20;;;;;;4422962;32;20148;-65
2022/03/20 12:53:09;;;;;;;3.15;1.95;;;18.10;45.70;;;;;;4435804;32;20453;-64
2022/03/20 12:55:37;;;;;;;1.35;0.82;;;18.50;44.70;;;;;;4419809;32;20061;-64
2022/03/20 12:58:03;;;;;;;1.75;1.15;;;18.50;44.50;;;;;;4437806;32;20077;-64
2022/03/20 13:00:32;;;;;;;6.97;1.15;;;18.50;43.60;;;;;;4433357;32;20068;-65
2022/03/20 13:03:11;;;;;;;4.70;2.17;;;19.10;43.80;;;;;;4432789;32;20058;-64
2022/03/20 13:05:57;;;;;;;2.47;1.60;;;18.80;43.50;;;;;;4434302;32;20162;-64
2022/03/20 13:08:26;;;;;;;1.20;1.10;;;18.30;43.70;;;;;;4420482;32;20520;-64
2022/03/20 13:10:54;;;;;;;1.55;1.12;;;18.30;44.20;;;;;;4433302;32;20135;-64
2022/03/20 13:13:21;;;;;;;1.85;1.10;;;18.70;44.20;;;;;;4423329;32;20591;-64